sensor_id;sensor_type;location;lat;lon;timestamp;P1;durP1;ratioP1;P2;durP2;ratioP2
61903;SDS011;47857;52.270;6.804;2024-03-02T00:00:23;4.50;;;2.00;;
61903;SDS011;47857;52.270;6.804;2024-03-02T00:02:50;2.67;;;1.73;;
61903;SDS011;47857;52.270;6.804;2024-03-02T00:05:19;3.30;;;2.15;;
61903;SDS011;47857;52.270;6.804;2024-03-02T00:07:47;2.80;;;1.80;;
61903;SDS011;47857;52.270;6.804;2024-03-02T00:10:23;3.15;;;1.80;;
61903;SDS011;47857;52.270;6.804;2024-03-02T00:12:54;4.40;;;2.53;;
61903;SDS011;47857;52.270;6.804;2024-03-02T00:18:18;3.67;;;2.00;;
61903;SDS011;47857;52.270;6.804;2024-03-02T00:20:45;2.47;;;1.58;;
61903;SDS011;47857;52.270;6.804;2024-03-02T00:23:13;4.40;;;1.90;;
61903;SDS011;47857;52.270;6.804;2024-03-02T00:25:41;5.43;;;2.05;;
61903;SDS011;47857;52.270;6.804;2024-03-02T00:28:11;3.65;;;2.10;;
61903;SDS011;47857;52.270;6.804;2024-03-02T00:33:27;4.20;;;1.80;;
61903;SDS011;47857;52.270;6.804;2024-03-02T00:36:00;2.88;;;1.90;;
61903;SDS011;47857;52.270;6.804;2024-03-02T00:38:27;5.03;;;1.92;;
61903;SDS011;47857;52.270;6.804;2024-03-02T00:40:53;5.63;;;2.00;;
61903;SDS011;47857;52.270;6.804;2024-03-02T00:44:05;3.97;;;2.17;;
61903;SDS011;47857;52.270;6.804;2024-03-02T00:46:05;4.03;;;2.08;;
61903;SDS011;47857;52.270;6.804;2024-03-02T00:48:31;4.30;;;1.80;;
61903;SDS011;47857;52.270;6.804;2024-03-02T00:50:57;4.53;;;1.90;;
61903;SDS011;47857;52.270;6.804;2024-03-02T00:53:23;3.15;;;1.80;;
61903;SDS011;47857;52.270;6.804;2024-03-02T00:55:52;3.92;;;1.75;;
61903;SDS011;47857;52.270;6.804;2024-03-02T00:58:18;2.25;;;1.80;;
61903;SDS011;47857;52.270;6.804;2024-03-02T01:00:43;4.43;;;2.08;;
61903;SDS011;47857;52.270;6.804;2024-03-02T01:03:09;4.28;;;2.45;;
61903;SDS011;47857;52.270;6.804;2024-03-02T01:05:36;5.03;;;2.53;;
61903;SDS011;47857;52.270;6.804;2024-03-02T01:08:02;4.45;;;2.50;;
61903;SDS011;47857;52.270;6.804;2024-03-02T01:10:27;3.47;;;2.45;;
61903;SDS011;47857;52.270;6.804;2024-03-02T01:12:53;6.55;;;2.20;;
61903;SDS011;47857;52.270;6.804;2024-03-02T01:15:18;4.65;;;2.10;;
61903;SDS011;47857;52.270;6.804;2024-03-02T01:17:44;3.22;;;2.20;;
61903;SDS011;47857;52.270;6.804;2024-03-02T01:20:10;2.25;;;1.73;;
61903;SDS011;47857;52.270;6.804;2024-03-02T01:22:36;6.43;;;1.95;;
61903;SDS011;47857;52.270;6.804;2024-03-02T01:25:02;4.97;;;2.45;;
61903;SDS011;47857;52.270;6.804;2024-03-02T01:27:28;4.10;;;2.08;;
61903;SDS011;47857;52.270;6.804;2024-03-02T01:29:54;4.15;;;2.08;;
61903;SDS011;47857;52.270;6.804;2024-03-02T01:32:19;3.20;;;2.22;;
61903;SDS011;47857;52.270;6.804;2024-03-02T01:34:45;3.63;;;1.88;;
61903;SDS011;47857;52.270;6.804;2024-03-02T01:37:11;2.78;;;1.90;;
61903;SDS011;47857;52.270;6.804;2024-03-02T01:39:36;3.13;;;1.90;;
61903;SDS011;47857;52.270;6.804;2024-03-02T01:42:02;2.15;;;1.80;;
61903;SDS011;47857;52.270;6.804;2024-03-02T01:44:28;3.20;;;2.10;;
61903;SDS011;47857;52.270;6.804;2024-03-02T01:46:53;4.22;;;2.20;;
61903;SDS011;47857;52.270;6.804;2024-03-02T01:49:19;3.53;;;2.22;;
61903;SDS011;47857;52.270;6.804;2024-03-02T01:51:44;4.22;;;2.05;;
61903;SDS011;47857;52.270;6.804;2024-03-02T01:54:10;4.93;;;2.30;;
61903;SDS011;47857;52.270;6.804;2024-03-02T01:56:35;3.40;;;1.90;;
61903;SDS011;47857;52.270;6.804;2024-03-02T01:59:01;4.70;;;1.98;;
61903;SDS011;47857;52.270;6.804;2024-03-02T02:01:26;3.28;;;1.95;;
61903;SDS011;47857;52.270;6.804;2024-03-02T02:03:52;3.75;;;1.90;;
61903;SDS011;47857;52.270;6.804;2024-03-02T02:06:18;5.13;;;2.25;;
61903;SDS011;47857;52.270;6.804;2024-03-02T02:08:43;3.15;;;1.92;;
61903;SDS011;47857;52.270;6.804;2024-03-02T02:11:09;2.95;;;1.80;;
61903;SDS011;47857;52.270;6.804;2024-03-02T02:13:34;3.80;;;2.10;;
61903;SDS011;47857;52.270;6.804;2024-03-02T02:16:09;2.75;;;1.90;;
61903;SDS011;47857;52.270;6.804;2024-03-02T02:18:34;4.35;;;2.30;;
61903;SDS011;47857;52.270;6.804;2024-03-02T02:21:01;5.15;;;2.10;;
61903;SDS011;47857;52.270;6.804;2024-03-02T02:23:27;3.45;;;1.92;;
61903;SDS011;47857;52.270;6.804;2024-03-02T02:25:52;3.60;;;2.10;;
61903;SDS011;47857;52.270;6.804;2024-03-02T02:28:18;3.88;;;2.08;;
61903;SDS011;47857;52.270;6.804;2024-03-02T02:30:43;2.30;;;1.88;;
61903;SDS011;47857;52.270;6.804;2024-03-02T02:33:09;3.75;;;1.92;;
61903;SDS011;47857;52.270;6.804;2024-03-02T02:35:34;3.30;;;2.08;;
61903;SDS011;47857;52.270;6.804;2024-03-02T02:38:00;4.43;;;1.95;;
61903;SDS011;47857;52.270;6.804;2024-03-02T02:40:26;3.83;;;2.03;;
61903;SDS011;47857;52.270;6.804;2024-03-02T02:42:52;3.83;;;1.98;;
61903;SDS011;47857;52.270;6.804;2024-03-02T02:45:18;3.88;;;2.33;;
61903;SDS011;47857;52.270;6.804;2024-03-02T02:47:44;3.53;;;1.90;;
61903;SDS011;47857;52.270;6.804;2024-03-02T02:50:10;4.72;;;2.10;;
61903;SDS011;47857;52.270;6.804;2024-03-02T02:52:37;4.38;;;2.28;;
61903;SDS011;47857;52.270;6.804;2024-03-02T02:55:06;3.75;;;1.90;;
61903;SDS011;47857;52.270;6.804;2024-03-02T02:57:33;4.68;;;2.28;;
61903;SDS011;47857;52.270;6.804;2024-03-02T03:00:07;3.88;;;2.15;;
61903;SDS011;47857;52.270;6.804;2024-03-02T03:02:39;5.60;;;2.00;;
61903;SDS011;47857;52.270;6.804;2024-03-02T03:05:08;4.07;;;2.28;;
61903;SDS011;47857;52.270;6.804;2024-03-02T03:07:35;5.13;;;2.10;;
61903;SDS011;47857;52.270;6.804;2024-03-02T03:10:01;3.13;;;1.73;;
61903;SDS011;47857;52.270;6.804;2024-03-02T03:12:28;3.58;;;2.10;;
61903;SDS011;47857;52.270;6.804;2024-03-02T03:14:54;3.20;;;1.98;;
61903;SDS011;47857;52.270;6.804;2024-03-02T03:17:21;3.85;;;2.20;;
61903;SDS011;47857;52.270;6.804;2024-03-02T03:19:47;3.60;;;2.00;;
61903;SDS011;47857;52.270;6.804;2024-03-02T03:22:12;3.05;;;2.00;;
61903;SDS011;47857;52.270;6.804;2024-03-02T03:24:38;3.42;;;1.90;;
61903;SDS011;47857;52.270;6.804;2024-03-02T03:27:04;7.90;;;2.20;;
61903;SDS011;47857;52.270;6.804;2024-03-02T03:29:29;4.13;;;1.88;;
61903;SDS011;47857;52.270;6.804;2024-03-02T03:31:55;3.38;;;1.80;;
61903;SDS011;47857;52.270;6.804;2024-03-02T03:34:20;3.75;;;1.85;;
61903;SDS011;47857;52.270;6.804;2024-03-02T03:36:46;3.80;;;2.00;;
61903;SDS011;47857;52.270;6.804;2024-03-02T03:39:11;4.28;;;1.90;;
61903;SDS011;47857;52.270;6.804;2024-03-02T03:41:37;5.00;;;1.88;;
61903;SDS011;47857;52.270;6.804;2024-03-02T03:44:02;5.68;;;1.75;;
61903;SDS011;47857;52.270;6.804;2024-03-02T03:46:28;4.18;;;1.60;;
61903;SDS011;47857;52.270;6.804;2024-03-02T03:48:54;4.43;;;1.90;;
61903;SDS011;47857;52.270;6.804;2024-03-02T03:51:21;4.32;;;1.90;;
61903;SDS011;47857;52.270;6.804;2024-03-02T03:53:48;3.85;;;1.80;;
61903;SDS011;47857;52.270;6.804;2024-03-02T03:56:14;2.78;;;1.63;;
61903;SDS011;47857;52.270;6.804;2024-03-02T03:58:39;3.25;;;1.75;;
61903;SDS011;47857;52.270;6.804;2024-03-02T04:01:05;2.33;;;1.45;;
61903;SDS011;47857;52.270;6.804;2024-03-02T04:03:30;3.20;;;1.70;;
61903;SDS011;47857;52.270;6.804;2024-03-02T04:05:56;2.97;;;1.70;;
61903;SDS011;47857;52.270;6.804;2024-03-02T04:08:21;3.60;;;1.90;;
61903;SDS011;47857;52.270;6.804;2024-03-02T04:10:47;3.97;;;1.88;;
61903;SDS011;47857;52.270;6.804;2024-03-02T04:13:13;4.47;;;1.65;;
61903;SDS011;47857;52.270;6.804;2024-03-02T04:15:38;2.30;;;1.55;;
61903;SDS011;47857;52.270;6.804;2024-03-02T04:18:05;2.70;;;1.60;;
61903;SDS011;47857;52.270;6.804;2024-03-02T04:20:31;5.47;;;1.77;;
61903;SDS011;47857;52.270;6.804;2024-03-02T04:22:57;3.00;;;1.70;;
61903;SDS011;47857;52.270;6.804;2024-03-02T04:25:22;5.60;;;1.70;;
61903;SDS011;47857;52.270;6.804;2024-03-02T04:27:48;3.58;;;1.58;;
61903;SDS011;47857;52.270;6.804;2024-03-02T04:30:13;3.20;;;1.58;;
61903;SDS011;47857;52.270;6.804;2024-03-02T04:32:39;2.92;;;1.75;;
61903;SDS011;47857;52.270;6.804;2024-03-02T04:35:05;4.30;;;1.85;;
61903;SDS011;47857;52.270;6.804;2024-03-02T04:37:34;4.30;;;1.75;;
61903;SDS011;47857;52.270;6.804;2024-03-02T04:39:59;3.38;;;1.77;;
61903;SDS011;47857;52.270;6.804;2024-03-02T04:42:25;4.05;;;1.48;;
61903;SDS011;47857;52.270;6.804;2024-03-02T04:44:50;2.47;;;1.40;;
61903;SDS011;47857;52.270;6.804;2024-03-02T04:47:16;2.60;;;1.40;;
61903;SDS011;47857;52.270;6.804;2024-03-02T04:49:41;5.90;;;1.80;;
61903;SDS011;47857;52.270;6.804;2024-03-02T04:52:08;4.72;;;1.50;;
61903;SDS011;47857;52.270;6.804;2024-03-02T04:54:34;3.10;;;1.23;;
61903;SDS011;47857;52.270;6.804;2024-03-02T04:57:19;3.85;;;1.27;;
61903;SDS011;47857;52.270;6.804;2024-03-02T04:59:45;3.45;;;1.08;;
61903;SDS011;47857;52.270;6.804;2024-03-02T05:02:10;2.28;;;1.10;;
61903;SDS011;47857;52.270;6.804;2024-03-02T05:04:39;2.28;;;0.93;;
61903;SDS011;47857;52.270;6.804;2024-03-02T05:07:05;3.03;;;1.00;;
61903;SDS011;47857;52.270;6.804;2024-03-02T05:09:31;2.60;;;0.90;;
61903;SDS011;47857;52.270;6.804;2024-03-02T05:11:56;3.22;;;0.95;;
61903;SDS011;47857;52.270;6.804;2024-03-02T05:14:42;3.83;;;0.75;;
61903;SDS011;47857;52.270;6.804;2024-03-02T05:17:08;1.80;;;0.70;;
61903;SDS011;47857;52.270;6.804;2024-03-02T05:19:33;3.83;;;0.80;;
61903;SDS011;47857;52.270;6.804;2024-03-02T05:21:59;3.22;;;0.70;;
61903;SDS011;47857;52.270;6.804;2024-03-02T05:24:24;3.72;;;1.02;;
61903;SDS011;47857;52.270;6.804;2024-03-02T05:26:52;1.42;;;0.70;;
61903;SDS011;47857;52.270;6.804;2024-03-02T05:29:18;4.40;;;0.90;;
61903;SDS011;47857;52.270;6.804;2024-03-02T05:31:43;1.98;;;0.80;;
61903;SDS011;47857;52.270;6.804;2024-03-02T05:34:09;2.25;;;0.80;;
61903;SDS011;47857;52.270;6.804;2024-03-02T05:36:34;3.22;;;1.17;;
61903;SDS011;47857;52.270;6.804;2024-03-02T05:39:00;2.17;;;0.82;;
61903;SDS011;47857;52.270;6.804;2024-03-02T05:41:26;2.00;;;0.80;;
61903;SDS011;47857;52.270;6.804;2024-03-02T05:43:52;3.78;;;0.90;;
61903;SDS011;47857;52.270;6.804;2024-03-02T05:46:17;2.20;;;0.70;;
61903;SDS011;47857;52.270;6.804;2024-03-02T05:48:43;1.05;;;0.60;;
61903;SDS011;47857;52.270;6.804;2024-03-02T05:51:08;3.65;;;0.85;;
61903;SDS011;47857;52.270;6.804;2024-03-02T05:53:34;2.55;;;0.57;;
61903;SDS011;47857;52.270;6.804;2024-03-02T05:55:59;3.15;;;0.70;;
61903;SDS011;47857;52.270;6.804;2024-03-02T05:58:25;2.38;;;0.85;;
61903;SDS011;47857;52.270;6.804;2024-03-02T06:01:09;1.48;;;0.70;;
61903;SDS011;47857;52.270;6.804;2024-03-02T06:03:35;2.72;;;0.85;;
61903;SDS011;47857;52.270;6.804;2024-03-02T06:06:00;4.55;;;0.82;;
61903;SDS011;47857;52.270;6.804;2024-03-02T06:08:26;3.33;;;0.95;;
61903;SDS011;47857;52.270;6.804;2024-03-02T06:10:51;2.35;;;0.93;;
61903;SDS011;47857;52.270;6.804;2024-03-02T06:13:17;2.28;;;0.93;;
61903;SDS011;47857;52.270;6.804;2024-03-02T06:15:42;3.58;;;0.95;;
61903;SDS011;47857;52.270;6.804;2024-03-02T06:18:08;3.75;;;0.88;;
61903;SDS011;47857;52.270;6.804;2024-03-02T06:20:34;1.83;;;0.80;;
61903;SDS011;47857;52.270;6.804;2024-03-02T06:22:59;1.83;;;0.80;;
61903;SDS011;47857;52.270;6.804;2024-03-02T06:25:25;1.73;;;0.90;;
61903;SDS011;47857;52.270;6.804;2024-03-02T06:27:50;2.65;;;0.90;;
61903;SDS011;47857;52.270;6.804;2024-03-02T06:30:16;2.20;;;0.75;;
61903;SDS011;47857;52.270;6.804;2024-03-02T06:32:41;1.85;;;0.90;;
61903;SDS011;47857;52.270;6.804;2024-03-02T06:35:07;2.78;;;0.90;;
61903;SDS011;47857;52.270;6.804;2024-03-02T06:37:35;4.93;;;1.02;;
61903;SDS011;47857;52.270;6.804;2024-03-02T06:40:01;2.03;;;0.82;;
61903;SDS011;47857;52.270;6.804;2024-03-02T06:42:27;2.80;;;0.85;;
61903;SDS011;47857;52.270;6.804;2024-03-02T06:44:58;2.53;;;1.00;;
61903;SDS011;47857;52.270;6.804;2024-03-02T06:47:24;2.28;;;1.02;;
61903;SDS011;47857;52.270;6.804;2024-03-02T06:49:49;1.95;;;0.60;;
61903;SDS011;47857;52.270;6.804;2024-03-02T06:52:15;2.05;;;0.93;;
61903;SDS011;47857;52.270;6.804;2024-03-02T06:54:40;2.65;;;1.40;;
61903;SDS011;47857;52.270;6.804;2024-03-02T06:57:06;1.95;;;1.17;;
61903;SDS011;47857;52.270;6.804;2024-03-02T06:59:31;5.47;;;1.13;;
61903;SDS011;47857;52.270;6.804;2024-03-02T07:01:58;2.45;;;1.00;;
61903;SDS011;47857;52.270;6.804;2024-03-02T07:04:24;2.33;;;0.98;;
61903;SDS011;47857;52.270;6.804;2024-03-02T07:06:50;3.45;;;1.40;;
61903;SDS011;47857;52.270;6.804;2024-03-02T07:09:16;2.72;;;1.10;;
61903;SDS011;47857;52.270;6.804;2024-03-02T07:11:42;2.15;;;1.20;;
61903;SDS011;47857;52.270;6.804;2024-03-02T07:14:08;4.53;;;1.40;;
61903;SDS011;47857;52.270;6.804;2024-03-02T07:16:33;3.22;;;1.33;;
61903;SDS011;47857;52.270;6.804;2024-03-02T07:18:59;3.78;;;1.48;;
61903;SDS011;47857;52.270;6.804;2024-03-02T07:21:27;3.20;;;1.40;;
61903;SDS011;47857;52.270;6.804;2024-03-02T07:23:53;4.47;;;1.15;;
61903;SDS011;47857;52.270;6.804;2024-03-02T07:26:18;5.68;;;1.35;;
61903;SDS011;47857;52.270;6.804;2024-03-02T07:28:45;4.22;;;1.30;;
61903;SDS011;47857;52.270;6.804;2024-03-02T07:31:13;3.17;;;1.23;;
61903;SDS011;47857;52.270;6.804;2024-03-02T07:33:38;4.55;;;1.05;;
61903;SDS011;47857;52.270;6.804;2024-03-02T07:36:04;1.83;;;1.10;;
61903;SDS011;47857;52.270;6.804;2024-03-02T07:38:29;3.08;;;1.20;;
61903;SDS011;47857;52.270;6.804;2024-03-02T07:40:55;5.95;;;1.20;;
61903;SDS011;47857;52.270;6.804;2024-03-02T07:43:21;4.65;;;1.13;;
61903;SDS011;47857;52.270;6.804;2024-03-02T07:45:47;2.63;;;1.10;;
61903;SDS011;47857;52.270;6.804;2024-03-02T07:48:13;2.60;;;1.35;;
61903;SDS011;47857;52.270;6.804;2024-03-02T07:50:39;3.50;;;1.45;;
61903;SDS011;47857;52.270;6.804;2024-03-02T07:53:05;2.17;;;1.23;;
61903;SDS011;47857;52.270;6.804;2024-03-02T07:55:31;2.85;;;1.40;;
61903;SDS011;47857;52.270;6.804;2024-03-02T07:57:56;5.45;;;1.90;;
61903;SDS011;47857;52.270;6.804;2024-03-02T08:00:22;4.60;;;1.90;;
61903;SDS011;47857;52.270;6.804;2024-03-02T08:02:49;7.47;;;1.92;;
61903;SDS011;47857;52.270;6.804;2024-03-02T08:05:16;3.85;;;2.08;;
61903;SDS011;47857;52.270;6.804;2024-03-02T08:07:43;4.63;;;2.00;;
61903;SDS011;47857;52.270;6.804;2024-03-02T08:10:09;3.97;;;2.15;;
61903;SDS011;47857;52.270;6.804;2024-03-02T08:12:35;4.15;;;2.25;;
61903;SDS011;47857;52.270;6.804;2024-03-02T08:15:00;3.78;;;2.15;;
61903;SDS011;47857;52.270;6.804;2024-03-02T08:17:26;6.60;;;2.40;;
61903;SDS011;47857;52.270;6.804;2024-03-02T08:19:51;5.78;;;2.30;;
61903;SDS011;47857;52.270;6.804;2024-03-02T08:22:17;3.60;;;2.30;;
61903;SDS011;47857;52.270;6.804;2024-03-02T08:24:43;6.32;;;2.40;;
61903;SDS011;47857;52.270;6.804;2024-03-02T08:27:08;5.72;;;2.13;;
61903;SDS011;47857;52.270;6.804;2024-03-02T08:29:34;4.05;;;2.35;;
61903;SDS011;47857;52.270;6.804;2024-03-02T08:32:00;4.57;;;2.50;;
61903;SDS011;47857;52.270;6.804;2024-03-02T08:34:25;8.68;;;2.65;;
61903;SDS011;47857;52.270;6.804;2024-03-02T08:36:51;5.00;;;2.28;;
61903;SDS011;47857;52.270;6.804;2024-03-02T08:39:16;4.38;;;2.17;;
61903;SDS011;47857;52.270;6.804;2024-03-02T08:41:44;6.47;;;2.92;;
61903;SDS011;47857;52.270;6.804;2024-03-02T08:44:10;5.45;;;2.65;;
61903;SDS011;47857;52.270;6.804;2024-03-02T08:46:35;6.78;;;2.28;;
61903;SDS011;47857;52.270;6.804;2024-03-02T08:49:01;7.07;;;2.80;;
61903;SDS011;47857;52.270;6.804;2024-03-02T08:51:27;6.13;;;2.10;;
61903;SDS011;47857;52.270;6.804;2024-03-02T08:53:52;5.00;;;2.20;;
61903;SDS011;47857;52.270;6.804;2024-03-02T08:56:18;6.05;;;2.10;;
61903;SDS011;47857;52.270;6.804;2024-03-02T08:58:45;4.88;;;2.10;;
61903;SDS011;47857;52.270;6.804;2024-03-02T09:01:11;4.25;;;2.22;;
61903;SDS011;47857;52.270;6.804;2024-03-02T09:03:36;6.68;;;2.42;;
61903;SDS011;47857;52.270;6.804;2024-03-02T09:06:02;5.40;;;1.95;;
61903;SDS011;47857;52.270;6.804;2024-03-02T09:08:28;5.38;;;1.60;;
61903;SDS011;47857;52.270;6.804;2024-03-02T09:10:54;4.00;;;1.50;;
61903;SDS011;47857;52.270;6.804;2024-03-02T09:13:20;3.17;;;1.30;;
61903;SDS011;47857;52.270;6.804;2024-03-02T09:15:45;6.30;;;1.85;;
61903;SDS011;47857;52.270;6.804;2024-03-02T09:18:11;4.05;;;1.50;;
61903;SDS011;47857;52.270;6.804;2024-03-02T09:20:36;4.30;;;1.90;;
61903;SDS011;47857;52.270;6.804;2024-03-02T09:23:02;4.47;;;1.67;;
61903;SDS011;47857;52.270;6.804;2024-03-02T09:25:28;4.90;;;1.45;;
61903;SDS011;47857;52.270;6.804;2024-03-02T09:27:53;4.03;;;1.50;;
61903;SDS011;47857;52.270;6.804;2024-03-02T09:30:18;5.05;;;1.75;;
61903;SDS011;47857;52.270;6.804;2024-03-02T09:32:44;2.67;;;1.50;;
61903;SDS011;47857;52.270;6.804;2024-03-02T09:35:09;4.85;;;1.60;;
61903;SDS011;47857;52.270;6.804;2024-03-02T09:37:35;3.67;;;1.63;;
61903;SDS011;47857;52.270;6.804;2024-03-02T09:40:01;5.95;;;1.70;;
61903;SDS011;47857;52.270;6.804;2024-03-02T09:42:27;7.88;;;2.42;;
61903;SDS011;47857;52.270;6.804;2024-03-02T09:44:53;3.80;;;1.60;;
61903;SDS011;47857;52.270;6.804;2024-03-02T09:47:18;5.38;;;1.90;;
61903;SDS011;47857;52.270;6.804;2024-03-02T09:49:44;6.50;;;1.65;;
61903;SDS011;47857;52.270;6.804;2024-03-02T09:52:10;3.40;;;1.48;;
61903;SDS011;47857;52.270;6.804;2024-03-02T09:54:35;7.43;;;1.80;;
61903;SDS011;47857;52.270;6.804;2024-03-02T09:57:01;6.00;;;2.25;;
61903;SDS011;47857;52.270;6.804;2024-03-02T09:59:28;8.15;;;2.00;;
61903;SDS011;47857;52.270;6.804;2024-03-02T10:01:57;5.72;;;1.75;;
61903;SDS011;47857;52.270;6.804;2024-03-02T10:04:26;4.97;;;1.80;;
61903;SDS011;47857;52.270;6.804;2024-03-02T10:09:37;4.70;;;1.60;;
61903;SDS011;47857;52.270;6.804;2024-03-02T10:12:04;4.35;;;2.10;;
61903;SDS011;47857;52.270;6.804;2024-03-02T10:14:30;5.20;;;1.98;;
61903;SDS011;47857;52.270;6.804;2024-03-02T10:16:55;3.25;;;1.90;;
61903;SDS011;47857;52.270;6.804;2024-03-02T10:19:27;5.50;;;2.45;;
61903;SDS011;47857;52.270;6.804;2024-03-02T10:21:57;5.07;;;1.75;;
61903;SDS011;47857;52.270;6.804;2024-03-02T10:24:23;6.47;;;2.10;;
61903;SDS011;47857;52.270;6.804;2024-03-02T10:26:49;4.28;;;2.08;;
61903;SDS011;47857;52.270;6.804;2024-03-02T10:29:15;4.25;;;1.90;;
61903;SDS011;47857;52.270;6.804;2024-03-02T10:31:41;6.35;;;2.05;;
61903;SDS011;47857;52.270;6.804;2024-03-02T10:34:09;5.75;;;1.65;;
61903;SDS011;47857;52.270;6.804;2024-03-02T10:36:36;3.38;;;1.65;;
61903;SDS011;47857;52.270;6.804;2024-03-02T10:39:02;3.95;;;1.45;;
61903;SDS011;47857;52.270;6.804;2024-03-02T10:41:29;5.32;;;1.45;;
61903;SDS011;47857;52.270;6.804;2024-03-02T10:43:57;5.88;;;1.55;;
61903;SDS011;47857;52.270;6.804;2024-03-02T10:46:31;2.88;;;1.00;;
61903;SDS011;47857;52.270;6.804;2024-03-02T10:48:58;3.33;;;1.40;;
61903;SDS011;47857;52.270;6.804;2024-03-02T10:51:28;2.67;;;1.00;;
61903;SDS011;47857;52.270;6.804;2024-03-02T10:53:56;3.97;;;1.30;;
61903;SDS011;47857;52.270;6.804;2024-03-02T10:56:29;2.95;;;1.10;;
61903;SDS011;47857;52.270;6.804;2024-03-02T10:59:01;3.08;;;1.27;;
61903;SDS011;47857;52.270;6.804;2024-03-02T11:01:29;3.95;;;1.58;;
61903;SDS011;47857;52.270;6.804;2024-03-02T11:03:56;3.50;;;1.77;;
61903;SDS011;47857;52.270;6.804;2024-03-02T11:06:21;5.38;;;2.00;;
61903;SDS011;47857;52.270;6.804;2024-03-02T11:08:49;4.93;;;1.95;;
61903;SDS011;47857;52.270;6.804;2024-03-02T11:11:15;3.72;;;1.88;;
61903;SDS011;47857;52.270;6.804;2024-03-02T11:13:47;5.20;;;1.77;;
61903;SDS011;47857;52.270;6.804;2024-03-02T11:16:33;3.50;;;1.70;;
61903;SDS011;47857;52.270;6.804;2024-03-02T11:19:04;2.92;;;1.70;;
61903;SDS011;47857;52.270;6.804;2024-03-02T11:21:32;4.72;;;1.40;;
61903;SDS011;47857;52.270;6.804;2024-03-02T11:23:58;3.28;;;1.55;;
61903;SDS011;47857;52.270;6.804;2024-03-02T11:26:24;3.20;;;1.50;;
61903;SDS011;47857;52.270;6.804;2024-03-02T11:28:50;7.60;;;1.60;;
61903;SDS011;47857;52.270;6.804;2024-03-02T11:31:15;3.85;;;1.70;;
61903;SDS011;47857;52.270;6.804;2024-03-02T11:33:41;3.65;;;1.65;;
61903;SDS011;47857;52.270;6.804;2024-03-02T11:36:06;6.07;;;1.77;;
61903;SDS011;47857;52.270;6.804;2024-03-02T11:38:33;6.05;;;1.95;;
61903;SDS011;47857;52.270;6.804;2024-03-02T11:40:59;4.07;;;1.55;;
61903;SDS011;47857;52.270;6.804;2024-03-02T11:43:27;3.55;;;1.80;;
61903;SDS011;47857;52.270;6.804;2024-03-02T11:45:56;3.88;;;1.50;;
61903;SDS011;47857;52.270;6.804;2024-03-02T11:48:25;2.58;;;1.70;;
61903;SDS011;47857;52.270;6.804;2024-03-02T11:50:51;4.95;;;1.80;;
61903;SDS011;47857;52.270;6.804;2024-03-02T11:53:18;5.00;;;1.60;;
61903;SDS011;47857;52.270;6.804;2024-03-02T11:55:45;3.47;;;1.63;;
61903;SDS011;47857;52.270;6.804;2024-03-02T11:58:13;4.15;;;1.83;;
61903;SDS011;47857;52.270;6.804;2024-03-02T12:00:39;3.10;;;1.67;;
61903;SDS011;47857;52.270;6.804;2024-03-02T12:03:06;2.80;;;1.58;;
61903;SDS011;47857;52.270;6.804;2024-03-02T12:05:32;3.97;;;1.75;;
61903;SDS011;47857;52.270;6.804;2024-03-02T12:07:59;4.78;;;1.90;;
61903;SDS011;47857;52.270;6.804;2024-03-02T12:10:26;4.70;;;1.80;;
61903;SDS011;47857;52.270;6.804;2024-03-02T12:13:01;3.42;;;1.73;;
61903;SDS011;47857;52.270;6.804;2024-03-02T12:15:31;4.00;;;1.80;;
61903;SDS011;47857;52.270;6.804;2024-03-02T12:18:02;6.05;;;1.50;;
61903;SDS011;47857;52.270;6.804;2024-03-02T12:20:28;2.80;;;1.30;;
61903;SDS011;47857;52.270;6.804;2024-03-02T12:22:56;6.97;;;1.30;;
61903;SDS011;47857;52.270;6.804;2024-03-02T12:25:23;4.93;;;1.30;;
61903;SDS011;47857;52.270;6.804;2024-03-02T12:27:50;5.35;;;1.27;;
61903;SDS011;47857;52.270;6.804;2024-03-02T12:30:18;5.97;;;1.50;;
61903;SDS011;47857;52.270;6.804;2024-03-02T12:32:46;3.53;;;1.20;;
61903;SDS011;47857;52.270;6.804;2024-03-02T12:35:12;4.03;;;1.30;;
61903;SDS011;47857;52.270;6.804;2024-03-02T12:37:44;2.22;;;1.30;;
61903;SDS011;47857;52.270;6.804;2024-03-02T12:40:14;3.03;;;1.25;;
61903;SDS011;47857;52.270;6.804;2024-03-02T12:42:40;3.92;;;1.50;;
61903;SDS011;47857;52.270;6.804;2024-03-02T12:45:07;3.10;;;1.25;;
61903;SDS011;47857;52.270;6.804;2024-03-02T12:47:33;4.47;;;1.70;;
61903;SDS011;47857;52.270;6.804;2024-03-02T12:49:59;3.42;;;1.10;;
61903;SDS011;47857;52.270;6.804;2024-03-02T12:52:25;3.13;;;0.98;;
61903;SDS011;47857;52.270;6.804;2024-03-02T12:54:51;2.33;;;0.80;;
61903;SDS011;47857;52.270;6.804;2024-03-02T12:57:20;3.55;;;0.90;;
61903;SDS011;47857;52.270;6.804;2024-03-02T12:59:46;2.70;;;1.10;;
61903;SDS011;47857;52.270;6.804;2024-03-02T13:02:18;3.05;;;1.00;;
61903;SDS011;47857;52.270;6.804;2024-03-02T13:04:43;8.00;;;1.10;;
61903;SDS011;47857;52.270;6.804;2024-03-02T13:07:10;3.58;;;1.35;;
61903;SDS011;47857;52.270;6.804;2024-03-02T13:09:39;3.95;;;1.27;;
61903;SDS011;47857;52.270;6.804;2024-03-02T13:12:04;6.13;;;1.10;;
61903;SDS011;47857;52.270;6.804;2024-03-02T13:14:33;2.50;;;0.80;;
61903;SDS011;47857;52.270;6.804;2024-03-02T13:17:00;3.95;;;1.15;;
61903;SDS011;47857;52.270;6.804;2024-03-02T13:19:29;2.85;;;1.00;;
61903;SDS011;47857;52.270;6.804;2024-03-02T13:21:56;2.90;;;0.85;;
61903;SDS011;47857;52.270;6.804;2024-03-02T13:24:27;2.55;;;1.02;;
61903;SDS011;47857;52.270;6.804;2024-03-02T13:26:54;4.00;;;1.10;;
61903;SDS011;47857;52.270;6.804;2024-03-02T13:29:22;4.03;;;0.90;;
61903;SDS011;47857;52.270;6.804;2024-03-02T13:31:47;4.43;;;1.10;;
61903;SDS011;47857;52.270;6.804;2024-03-02T13:34:13;3.08;;;0.90;;
61903;SDS011;47857;52.270;6.804;2024-03-02T13:36:39;3.13;;;1.40;;
61903;SDS011;47857;52.270;6.804;2024-03-02T13:39:04;4.90;;;1.25;;
61903;SDS011;47857;52.270;6.804;2024-03-02T13:41:35;3.17;;;1.10;;
61903;SDS011;47857;52.270;6.804;2024-03-02T13:44:01;2.88;;;0.82;;
61903;SDS011;47857;52.270;6.804;2024-03-02T13:46:27;2.60;;;0.90;;
61903;SDS011;47857;52.270;6.804;2024-03-02T13:48:53;4.47;;;1.30;;
61903;SDS011;47857;52.270;6.804;2024-03-02T13:51:23;6.20;;;1.35;;
61903;SDS011;47857;52.270;6.804;2024-03-02T13:53:50;4.20;;;1.30;;
61903;SDS011;47857;52.270;6.804;2024-03-02T13:56:16;4.13;;;1.23;;
61903;SDS011;47857;52.270;6.804;2024-03-02T13:58:42;2.00;;;0.93;;
61903;SDS011;47857;52.270;6.804;2024-03-02T14:01:08;3.47;;;0.88;;
61903;SDS011;47857;52.270;6.804;2024-03-02T14:03:34;2.60;;;0.93;;
61903;SDS011;47857;52.270;6.804;2024-03-02T14:06:00;2.75;;;1.10;;
61903;SDS011;47857;52.270;6.804;2024-03-02T14:08:25;4.35;;;0.90;;
61903;SDS011;47857;52.270;6.804;2024-03-02T14:10:50;2.45;;;1.08;;
61903;SDS011;47857;52.270;6.804;2024-03-02T14:13:16;3.78;;;1.38;;
61903;SDS011;47857;52.270;6.804;2024-03-02T14:15:42;6.20;;;1.17;;
61903;SDS011;47857;52.270;6.804;2024-03-02T14:18:07;2.13;;;0.82;;
61903;SDS011;47857;52.270;6.804;2024-03-02T14:20:36;3.40;;;1.10;;
61903;SDS011;47857;52.270;6.804;2024-03-02T14:23:02;4.75;;;1.17;;
61903;SDS011;47857;52.270;6.804;2024-03-02T14:25:28;5.00;;;1.00;;
61903;SDS011;47857;52.270;6.804;2024-03-02T14:27:56;4.15;;;0.98;;
61903;SDS011;47857;52.270;6.804;2024-03-02T14:30:23;2.65;;;0.80;;
61903;SDS011;47857;52.270;6.804;2024-03-02T14:32:48;4.28;;;1.10;;
61903;SDS011;47857;52.270;6.804;2024-03-02T14:35:14;6.20;;;0.80;;
61903;SDS011;47857;52.270;6.804;2024-03-02T14:37:40;2.58;;;0.80;;
61903;SDS011;47857;52.270;6.804;2024-03-02T14:40:06;2.10;;;0.88;;
61903;SDS011;47857;52.270;6.804;2024-03-02T14:42:33;4.28;;;1.63;;
61903;SDS011;47857;52.270;6.804;2024-03-02T14:44:59;3.90;;;1.25;;
61903;SDS011;47857;52.270;6.804;2024-03-02T14:47:25;3.42;;;1.10;;
61903;SDS011;47857;52.270;6.804;2024-03-02T14:49:50;2.17;;;0.80;;
61903;SDS011;47857;52.270;6.804;2024-03-02T14:52:16;3.22;;;1.00;;